Time;durP1;ratioP1;P1;durP2;ratioP2;P2;SDS_P1;SDS_P2;PMS_P1;PMS_P2;Temp;Humidity;BMP_temperature;BMP_pressure;BME280_temperature;BME280_humidity;BME280_pressure;Samples;Min_cycle;Max_cycle;Signal;HPM_P1;HPM_P2
2021/07/30 04:31:39;;;;;;;5.00;4.57;;;12.50;99.90;;;;;;5593791;23;20523;-77
2021/07/30 04:34:06;;;;;;;5.23;4.73;;;12.60;99.90;;;;;;4957896;28;20427;-79
2021/07/30 04:36:31;;;;;;;7.67;4.03;;;12.60;99.90;;;;;;4952723;28;20476;-77
2021/07/30 04:38:57;;;;;;;5.77;5.10;;;12.60;99.90;;;;;;4955534;29;20448;-78
2021/07/30 04:41:23;;;;;;;6.57;5.27;;;12.70;99.90;;;;;;4940847;28;20291;-78
2021/07/30 04:43:48;;;;;;;5.10;4.70;;;12.70;99.90;;;;;;4935663;29;21006;-78
2021/07/30 04:46:18;;;;;;;5.33;4.83;;;12.70;99.90;;;;;;4941895;29;20200;-77
2021/07/30 04:48:45;;;;;;;6.50;5.10;;;12.80;99.90;;;;;;4935679;29;20173;-78
2021/07/30 04:51:11;;;;;;;4.40;3.87;;;12.90;99.90;;;;;;4940195;28;20460;-78
2021/07/30 04:53:37;;;;;;;4.63;4.33;;;12.90;99.90;;;;;;4953751;29;20439;-78
2021/07/30 04:56:02;;;;;;;10.50;5.57;;;13.00;99.90;;;;;;4952245;29;20467;-78
2021/07/30 04:58:28;;;;;;;5.00;4.50;;;13.10;99.90;;;;;;4950339;29;20200;-78
2021/07/30 05:00:53;;;;;;;7.20;5.70;;;13.10;99.90;;;;;;4950830;29;20204;-77
2021/07/30 05:03:19;;;;;;;6.50;5.20;;;13.20;99.90;;;;;;4951448;29;20670;-77
2021/07/30 05:05:44;;;;;;;9.00;5.33;;;13.30;99.90;;;;;;4952052;29;20192;-76
2021/07/30 05:08:10;;;;;;;5.37;4.87;;;13.40;99.90;;;;;;4943301;29;20224;-77
2021/07/30 05:10:36;;;;;;;6.20;5.60;;;13.50;99.90;;;;;;4951379;29;20185;-76
2021/07/30 05:13:01;;;;;;;10.10;6.73;;;13.70;99.90;;;;;;4950481;29;20629;-77
2021/07/30 05:15:27;;;;;;;6.50;5.43;;;13.80;99.90;;;;;;4944987;28;20212;-76
2021/07/30 05:17:52;;;;;;;8.30;6.13;;;14.00;99.90;;;;;;4951799;29;20192;-77
2021/07/30 05:20:18;;;;;;;7.83;6.17;;;14.20;99.90;;;;;;4942751;29;20203;-77
2021/07/30 05:22:43;;;;;;;6.37;5.13;;;14.40;99.90;;;;;;4953081;28;20580;-77
2021/07/30 05:25:11;;;;;;;6.70;6.00;;;14.70;99.90;;;;;;4941390;28;20188;-77
2021/07/30 05:27:36;;;;;;;8.43;5.87;;;15.20;99.90;;;;;;4934287;29;20186;-77
2021/07/30 05:30:02;;;;;;;8.80;4.93;;;15.70;99.90;;;;;;4932770;29;20791;-74
2021/07/30 05:32:28;;;;;;;5.67;5.20;;;16.30;99.90;;;;;;4934001;29;20213;-77
2021/07/30 05:34:53;;;;;;;5.07;4.57;;;16.90;99.90;;;;;;4934112;29;20644;-78
2021/07/30 05:37:19;;;;;;;8.00;4.70;;;17.60;99.90;;;;;;4934211;29;20201;-78
2021/07/30 05:39:44;;;;;;;5.00;4.60;;;18.10;99.90;;;;;;4934434;29;20228;-78
2021/07/30 05:42:10;;;;;;;5.23;4.73;;;18.60;99.90;;;;;;4934374;29;20280;-78
2021/07/30 05:44:36;;;;;;;5.00;4.60;;;19.00;99.90;;;;;;4934297;29;20178;-77
2021/07/30 05:47:03;;;;;;;5.13;4.63;;;19.40;99.90;;;;;;4934108;29;20185;-76
2021/07/30 05:49:28;;;;;;;7.40;4.87;;;19.70;99.90;;;;;;4934488;29;20269;-78
2021/07/30 05:51:54;;;;;;;6.17;5.20;;;20.00;99.90;;;;;;4933796;29;20940;-75
2021/07/30 05:54:19;;;;;;;5.13;4.63;;;20.20;99.90;;;;;;4938264;29;20260;-79
2021/07/30 05:56:45;;;;;;;4.57;4.17;;;20.40;99.90;;;;;;4938540;29;20183;-79
2021/07/30 05:59:11;;;;;;;8.23;4.83;;;20.60;99.90;;;;;;4940029;29;20173;-78
2021/07/30 06:01:36;;;;;;;4.40;4.00;;;20.90;99.90;;;;;;4937431;29;20197;-76
2021/07/30 06:04:02;;;;;;;5.23;4.77;;;20.90;99.90;;;;;;4936584;29;20204;-78
2021/07/30 06:06:28;;;;;;;6.43;5.83;;;21.10;99.90;;;;;;4937915;29;20670;-79
2021/07/30 06:08:53;;;;;;;6.13;5.40;;;21.20;99.90;;;;;;4937896;29;20217;-79
2021/07/30 06:11:19;;;;;;;4.77;4.27;;;21.50;99.90;;;;;;4938019;29;20213;-78
2021/07/30 06:13:44;;;;;;;5.93;4.40;;;21.60;99.90;;;;;;4937265;29;20181;-77
2021/07/30 06:16:10;;;;;;;8.77;5.17;;;21.70;99.90;;;;;;4935931;29;20213;-78
2021/07/30 06:18:37;;;;;;;5.53;3.80;;;21.90;99.90;;;;;;4937234;29;20177;-78
2021/07/30 06:21:04;;;;;;;6.17;4.03;;;22.00;99.90;;;;;;4937239;29;20201;-78
2021/07/30 06:23:30;;;;;;;7.30;5.10;;;22.10;99.90;;;;;;4937145;29;20484;-78
2021/07/30 06:25:55;;;;;;;7.23;4.47;;;22.20;99.90;;;;;;4937299;29;20409;-76
2021/07/30 06:28:21;;;;;;;6.00;4.53;;;22.50;99.90;;;;;;4936247;29;20187;-78
2021/07/30 06:30:46;;;;;;;4.30;3.53;;;22.60;99.90;;;;;;4936819;29;20217;-78
2021/07/30 06:33:12;;;;;;;6.60;3.73;;;22.80;99.90;;;;;;4936083;29;20775;-78
2021/07/30 06:35:38;;;;;;;5.13;3.67;;;22.90;99.90;;;;;;4936800;29;20209;-78
2021/07/30 06:38:03;;;;;;;6.30;4.80;;;22.90;99.90;;;;;;4937220;29;20182;-77
2021/07/30 06:40:29;;;;;;;4.10;3.70;;;22.90;99.90;;;;;;4937237;29;20174;-72
2021/07/30 06:42:54;;;;;;;3.60;3.30;;;22.90;99.90;;;;;;4936603;29;20197;-69
2021/07/30 06:45:20;;;;;;;7.27;4.17;;;23.00;99.90;;;;;;4936688;29;20177;-72
2021/07/30 06:47:45;;;;;;;4.97;4.13;;;23.10;99.90;;;;;;4936363;29;20556;-74
2021/07/30 06:50:11;;;;;;;7.17;5.30;;;23.00;99.90;;;;;;4936722;29;20188;-72
2021/07/30 06:52:36;;;;;;;7.13;4.90;;;23.20;99.90;;;;;;4936218;29;20232;-72
2021/07/30 06:55:03;;;;;;;7.43;5.63;;;23.50;99.90;;;;;;4936606;29;20228;-74
2021/07/30 06:57:28;;;;;;;10.77;5.70;;;23.60;99.90;;;;;;4936350;29;20188;-73
2021/07/30 06:59:54;;;;;;;8.30;6.10;;;23.80;99.90;;;;;;4936277;29;20429;-70
2021/07/30 07:02:19;;;;;;;8.87;5.30;;;24.00;99.90;;;;;;4936246;29;20198;-72
2021/07/30 07:04:45;;;;;;;9.87;5.67;;;24.10;99.90;;;;;;4935395;29;20192;-72
2021/07/30 07:07:11;;;;;;;6.43;4.73;;;24.50;99.90;;;;;;4936339;29;20224;-72
2021/07/30 07:09:36;;;;;;;6.50;5.47;;;24.90;99.90;;;;;;4935747;29;20193;-73
2021/07/30 07:12:02;;;;;;;6.53;4.47;;;25.10;99.90;;;;;;4936200;29;20500;-71
2021/07/30 07:14:31;;;;;;;5.57;5.07;;;25.00;99.90;;;;;;4936047;29;20225;-72
2021/07/30 07:16:57;;;;;;;8.30;5.50;;;25.40;99.90;;;;;;4935331;29;20268;-80
2021/07/30 07:19:23;;;;;;;11.70;6.40;;;25.50;99.90;;;;;;4936610;29;20440;-79
2021/07/30 07:21:54;;;;;;;8.33;5.10;;;25.30;99.90;;;;;;4935620;29;20204;-80
2021/07/30 07:24:19;;;;;;;7.27;4.53;;;25.70;99.90;;;;;;4936537;29;20252;-80
2021/07/30 07:26:45;;;;;;;4.30;3.87;;;26.10;99.90;;;;;;4936544;29;20934;-79
2021/07/30 07:29:10;;;;;;;4.27;3.87;;;26.30;99.90;;;;;;4936120;29;20666;-80
2021/07/30 07:31:36;;;;;;;5.47;4.40;;;26.40;99.90;;;;;;4935851;29;20338;-79
2021/07/30 07:34:02;;;;;;;5.17;4.03;;;26.50;99.90;;;;;;4936317;29;20243;-78
2021/07/30 07:36:28;;;;;;;4.53;4.13;;;26.60;99.90;;;;;;4936351;29;20639;-79
2021/07/30 07:38:54;;;;;;;7.50;5.17;;;26.60;99.90;;;;;;4936629;29;20417;-76
2021/07/30 07:41:20;;;;;;;3.67;3.37;;;26.70;99.90;;;;;;4935794;29;20445;-79
2021/07/30 07:43:45;;;;;;;5.87;3.87;;;26.60;99.90;;;;;;4935569;29;20178;-80
2021/07/30 07:46:11;;;;;;;7.70;4.40;;;26.80;99.90;;;;;;4935249;29;20681;-79
2021/07/30 07:48:36;;;;;;;5.00;4.60;;;26.80;99.90;;;;;;4935074;29;20177;-79
2021/07/30 07:51:02;;;;;;;3.27;3.07;;;26.90;99.90;;;;;;4934743;29;20288;-79
2021/07/30 07:53:27;;;;;;;3.93;3.60;;;27.10;99.90;;;;;;4936201;29;20232;-81
2021/07/30 07:56:04;;;;;;;5.33;4.33;;;27.20;99.90;;;;;;4935672;29;20213;-79
2021/07/30 07:58:30;;;;;;;4.73;4.10;;;27.60;99.90;;;;;;4936158;29;20579;-79
2021/07/30 08:00:56;;;;;;;6.70;4.90;;;27.60;99.90;;;;;;4935710;29;20425;-78
2021/07/30 08:03:22;;;;;;;5.43;4.20;;;27.90;99.90;;;;;;4935878;29;20836;-79
2021/07/30 08:05:47;;;;;;;4.03;3.60;;;28.20;99.90;;;;;;4935707;29;20181;-80
2021/07/30 08:08:13;;;;;;;4.80;3.60;;;27.90;99.90;;;;;;4936039;29;20555;-81
2021/07/30 08:10:38;;;;;;;8.57;4.53;;;28.40;99.90;;;;;;4935793;29;20189;-79
2021/07/30 08:13:04;;;;;;;5.37;4.43;;;28.80;99.90;;;;;;4935847;29;20549;-79
2021/07/30 08:15:29;;;;;;;4.63;4.23;;;29.00;99.90;;;;;;4935971;29;20548;-80
2021/07/30 08:17:55;;;;;;;4.30;3.90;;;29.00;99.90;;;;;;4935570;29;20264;-77
2021/07/30 08:20:20;;;;;;;4.83;4.00;;;29.00;99.90;;;;;;4935834;29;20638;-79
2021/07/30 08:22:46;;;;;;;3.77;3.57;;;29.10;99.90;;;;;;4935807;29;20217;-80
2021/07/30 08:25:12;;;;;;;3.70;3.40;;;29.30;99.90;;;;;;4935627;29;20558;-79
2021/07/30 08:27:39;;;;;;;4.90;4.30;;;29.40;99.90;;;;;;4935628;29;20181;-79
2021/07/30 08:30:05;;;;;;;3.57;3.23;;;29.50;99.90;;;;;;4935558;29;20755;-79
2021/07/30 08:32:30;;;;;;;5.60;4.10;;;29.70;99.90;;;;;;4935841;29;20465;-81
2021/07/30 08:34:56;;;;;;;5.50;4.53;;;29.70;99.90;;;;;;4935493;29;20635;-77
2021/07/30 08:37:21;;;;;;;4.17;3.83;;;29.60;99.90;;;;;;4935196;29;20587;-79
2021/07/30 08:39:47;;;;;;;3.67;3.47;;;29.60;99.90;;;;;;4935116;29;20517;-80
2021/07/30 08:42:14;;;;;;;6.73;3.57;;;29.80;99.90;;;;;;4933974;29;20244;-80
2021/07/30 08:44:39;;;;;;;4.23;3.93;;;29.90;99.90;;;;;;4935094;29;20173;-79
2021/07/30 08:47:05;;;;;;;4.03;3.47;;;30.00;99.90;;;;;;4935234;29;20419;-79
2021/07/30 08:49:33;;;;;;;9.00;3.63;;;30.00;99.90;;;;;;4935642;29;20180;-79
2021/07/30 08:52:07;;;;;;;3.77;3.47;;;30.10;99.90;;;;;;4935334;29;20204;-80
2021/07/30 08:54:33;;;;;;;4.23;3.93;;;30.30;99.90;;;;;;4935118;29;20461;-79
2021/07/30 08:56:58;;;;;;;5.27;4.00;;;30.50;99.90;;;;;;4935055;29;20554;-79
2021/07/30 08:59:24;;;;;;;4.93;4.33;;;30.40;99.90;;;;;;4935057;29;20421;-80
2021/07/30 09:01:53;;;;;;;4.70;3.80;;;30.50;99.90;;;;;;4934641;29;20197;-79
2021/07/30 09:04:29;;;;;;;4.30;3.67;;;30.80;99.90;;;;;;4935179;29;20174;-79
2021/07/30 09:06:56;;;;;;;4.47;4.03;;;30.90;99.90;;;;;;4934842;29;20413;-79
2021/07/30 09:09:22;;;;;;;3.83;3.53;;;30.60;99.90;;;;;;4935003;29;20433;-80
2021/07/30 09:11:56;;;;;;;4.90;4.40;;;30.70;99.90;;;;;;4934719;29;20877;-79
2021/07/30 09:14:50;;;;;;;4.40;4.00;;;30.60;99.90;;;;;;4934578;29;20475;-80
2021/07/30 09:17:16;;;;;;;4.40;3.90;;;31.00;99.90;;;;;;4930443;29;20421;-78
2021/07/30 09:20:02;;;;;;;4.63;4.23;;;31.10;99.90;;;;;;4934386;29;20417;-80
2021/07/30 09:22:27;;;;;;;4.20;3.90;;;31.50;99.90;;;;;;4933777;29;20198;-79
2021/07/30 09:24:58;;;;;;;4.20;3.93;;;31.70;99.90;;;;;;4934936;29;20484;-79
2021/07/30 09:27:23;;;;;;;5.50;4.17;;;32.10;99.90;;;;;;4934936;29;20177;-79
2021/07/30 09:29:49;;;;;;;6.37;3.93;;;32.30;99.90;;;;;;4934740;29;20436;-79
2021/07/30 09:32:16;;;;;;;4.93;4.53;;;32.30;99.90;;;;;;4935389;29;20678;-78
2021/07/30 09:34:44;;;;;;;4.90;4.50;;;32.40;99.90;;;;;;4934793;29;20201;-79
2021/07/30 09:37:18;;;;;;;4.50;4.20;;;32.90;99.90;;;;;;4935248;29;20464;-79
2021/07/30 09:39:47;;;;;;;5.27;4.77;;;33.20;99.90;;;;;;4935791;29;20412;-77
2021/07/30 09:42:30;;;;;;;5.17;4.67;;;33.30;99.90;;;;;;4936125;29;20925;-78
2021/07/30 09:45:00;;;;;;;6.70;4.63;;;33.80;99.90;;;;;;4935905;29;20417;-80
2021/07/30 09:47:28;;;;;;;3.97;3.67;;;34.00;99.90;;;;;;4935783;29;20933;-79
2021/07/30 09:49:59;;;;;;;4.83;4.33;;;34.20;99.90;;;;;;4935099;29;20430;-81
2021/07/30 09:52:49;;;;;;;5.33;4.30;;;33.80;99.90;;;;;;4935410;29;20433;-79
2021/07/30 09:55:17;;;;;;;4.33;4.03;;;33.80;99.90;;;;;;4935785;29;20847;-76
2021/07/30 09:57:43;;;;;;;9.77;4.33;;;34.10;99.90;;;;;;4935321;29;20413;-80
2021/07/30 10:00:16;;;;;;;5.10;4.80;;;34.10;99.90;;;;;;4936404;29;20429;-80
2021/07/30 10:02:43;;;;;;;4.73;4.33;;;34.40;99.90;;;;;;4935624;29;20437;-80
2021/07/30 10:05:10;;;;;;;5.63;4.63;;;34.60;99.90;;;;;;4936042;29;20413;-79
2021/07/30 10:07:37;;;;;;;5.00;4.60;;;34.70;99.90;;;;;;4934832;29;20850;-80
2021/07/30 10:10:18;;;;;;;4.67;4.27;;;34.60;99.90;;;;;;4935625;29;20449;-79
2021/07/30 10:12:57;;;;;;;4.90;4.60;;;33.70;99.90;;;;;;4934515;29;20532;-79
2021/07/30 10:15:23;;;;;;;6.80;4.30;;;32.80;99.90;;;;;;4935132;29;20468;-80
2021/07/30 10:17:55;;;;;;;5.43;5.10;;;32.80;99.90;;;;;;4934646;29;20404;-77
2021/07/30 10:20:23;;;;;;;5.10;4.60;;;32.60;99.90;;;;;;4935155;29;20409;-79
2021/07/30 10:22:56;;;;;;;5.00;4.60;;;32.50;99.90;;;;;;4934950;29;20441;-80
2021/07/30 10:25:25;;;;;;;10.93;4.43;;;32.00;99.90;;;;;;4935217;29;20439;-79
2021/07/30 10:27:55;;;;;;;4.90;4.50;;;31.90;99.90;;;;;;4934451;29;20421;-79
2021/07/30 10:30:21;;;;;;;5.93;4.93;;;31.00;99.90;;;;;;4934249;29;20422;-79
2021/07/30 10:32:47;;;;;;;5.80;5.23;;;30.40;99.90;;;;;;4934318;29;20479;-79
2021/07/30 10:35:41;;;;;;;5.17;4.57;;;29.90;99.90;;;;;;4934069;29;20234;-78
2021/07/30 10:38:36;;;;;;;5.20;4.80;;;29.70;99.90;;;;;;4930896;29;20492;-81
2021/07/30 10:41:07;;;;;;;5.27;4.80;;;29.30;99.90;;;;;;4932141;29;20549;-77
2021/07/30 10:44:00;;;;;;;4.63;4.33;;;29.10;99.90;;;;;;4936861;29;20437;-77
2021/07/30 10:46:25;;;;;;;6.13;4.93;;;29.10;99.90;;;;;;4936664;29;20422;-78
2021/07/30 10:48:54;;;;;;;4.97;4.57;;;28.90;99.90;;;;;;4936824;29;20428;-80
2021/07/30 10:51:25;;;;;;;5.07;4.67;;;28.60;99.90;;;;;;4935673;29;20208;-78
2021/07/30 10:53:57;;;;;;;5.43;4.67;;;28.60;99.90;;;;;;4936668;29;20413;-79
2021/07/30 10:56:22;;;;;;;4.13;3.83;;;28.70;99.90;;;;;;4936696;29;20457;-78
2021/07/30 10:58:53;;;;;;;5.83;4.60;;;28.80;99.90;;;;;;4936711;29;20500;-78
2021/07/30 11:01:41;;;;;;;5.70;4.93;;;29.10;99.90;;;;;;4935352;29;20282;-78
2021/07/30 11:04:07;;;;;;;9.63;4.60;;;29.90;99.90;;;;;;4933796;29;20436;-79
2021/07/30 11:06:39;;;;;;;5.93;4.63;;;30.20;99.90;;;;;;4935216;29;20476;-78
2021/07/30 11:09:04;;;;;;;4.30;3.93;;;30.60;99.90;;;;;;4936507;29;20422;-79
2021/07/30 11:11:52;;;;;;;4.37;4.07;;;31.00;99.90;;;;;;4936559;29;20429;-78
2021/07/30 11:14:37;;;;;;;5.20;4.70;;;30.90;99.90;;;;;;4936482;29;20169;-79
2021/07/30 11:17:07;;;;;;;4.73;4.33;;;30.90;99.90;;;;;;4936823;29;20488;-81
2021/07/30 11:19:45;;;;;;;4.67;4.27;;;31.00;99.90;;;;;;4935331;29;20451;-80
2021/07/30 11:22:16;;;;;;;4.57;4.27;;;31.30;99.90;;;;;;4936529;29;20428;-77
2021/07/30 11:24:45;;;;;;;5.23;4.80;;;31.40;99.90;;;;;;4936296;29;20413;-79
2021/07/30 11:27:12;;;;;;;6.63;5.10;;;31.50;99.90;;;;;;4936389;29;20443;-79
2021/07/30 11:29:43;;;;;;;5.70;4.37;;;31.80;99.90;;;;;;4935958;29;20417;-80
2021/07/30 11:32:08;;;;;;;4.47;3.97;;;31.70;99.90;;;;;;4936626;29;20499;-79
2021/07/30 11:34:37;;;;;;;4.40;4.00;;;31.40;99.90;;;;;;4936226;29;20484;-79
2021/07/30 11:37:06;;;;;;;5.37;4.87;;;31.40;99.90;;;;;;4936047;29;20173;-78
2021/07/30 11:39:52;;;;;;;4.80;4.40;;;31.70;99.90;;;;;;4935164;29;20421;-79
2021/07/30 11:42:24;;;;;;;5.30;4.90;;;31.60;99.90;;;;;;4936068;29;20433;-79
2021/07/30 11:44:52;;;;;;;5.03;4.43;;;31.50;99.90;;;;;;4935995;29;20803;-77
2021/07/30 11:47:20;;;;;;;4.57;4.20;;;31.70;99.90;;;;;;4936294;29;20529;-79
2021/07/30 11:49:47;;;;;;;5.00;4.60;;;31.80;99.90;;;;;;4935461;29;20433;-78
2021/07/30 11:52:21;;;;;;;4.93;4.23;;;31.80;99.90;;;;;;4935600;29;20524;-80
2021/07/30 11:54:47;;;;;;;5.27;4.80;;;31.70;99.90;;;;;;4937197;29;20457;-77
2021/07/30 11:57:25;;;;;;;7.60;4.40;;;31.70;99.90;;;;;;4936865;29;20417;-79
2021/07/30 11:59:50;;;;;;;5.17;4.67;;;31.60;99.90;;;;;;4936097;29;20902;-80
2021/07/30 12:02:16;;;;;;;5.50;5.00;;;31.40;99.90;;;;;;4935832;29;20468;-78
2021/07/30 12:04:50;;;;;;;5.53;5.03;;;31.40;99.90;;;;;;4935901;29;20236;-79
2021/07/30 12:07:19;;;;;;;4.80;4.40;;;31.30;99.90;;;;;;4935694;29;20177;-77
2021/07/30 12:09:46;;;;;;;6.90;4.80;;;31.30;99.90;;;;;;4935530;29;20937;-81
2021/07/30 12:12:15;;;;;;;6.13;5.00;;;30.90;99.90;;;;;;4936068;29;20440;-79
2021/07/30 12:14:46;;;;;;;4.87;4.40;;;30.90;99.90;;;;;;4935063;29;20496;-79
2021/07/30 12:17:14;;;;;;;5.47;5.03;;;31.00;99.90;;;;;;4935661;29;20781;-80
2021/07/30 12:19:40;;;;;;;6.10;4.53;;;31.20;99.90;;;;;;4934953;29;20807;-79
2021/07/30 12:22:07;;;;;;;4.70;4.40;;;30.90;99.90;;;;;;4933973;29;20437;-79
2021/07/30 12:24:34;;;;;;;6.40;4.70;;;30.80;99.90;;;;;;4935194;29;20185;-79
2021/07/30 12:27:20;;;;;;;6.97;4.80;;;30.50;99.90;;;;;;4935308;29;20424;-78
2021/07/30 12:29:47;;;;;;;4.63;4.23;;;30.60;99.90;;;;;;4934933;29;20499;-79
2021/07/30 12:32:21;;;;;;;5.40;5.00;;;30.40;99.90;;;;;;4935009;29;20504;-79
2021/07/30 12:34:55;;;;;;;4.50;4.20;;;30.30;99.90;;;;;;4934899;29;20449;-79
2021/07/30 12:37:21;;;;;;;6.27;5.67;;;29.90;99.90;;;;;;4935233;29;20795;-79
2021/07/30 12:39:48;;;;;;;5.73;5.00;;;29.50;99.90;;;;;;4934975;29;20417;-79
2021/07/30 12:42:21;;;;;;;5.40;4.90;;;29.40;99.90;;;;;;4934829;29;20796;-78
2021/07/30 12:45:07;;;;;;;7.93;4.73;;;29.20;99.90;;;;;;4933930;29;20461;-81
2021/07/30 12:47:34;;;;;;;5.17;4.53;;;28.90;99.90;;;;;;4935063;29;20788;-79
2021/07/30 12:50:20;;;;;;;6.07;5.07;;;28.90;99.90;;;;;;4935091;29;20417;-79
2021/07/30 12:53:13;;;;;;;5.07;4.67;;;28.80;99.90;;;;;;4934547;29;20453;-79
2021/07/30 12:55:58;;;;;;;4.50;4.10;;;28.60;99.90;;;;;;4933691;29;20621;-79
2021/07/30 12:58:27;;;;;;;6.50;4.83;;;28.60;99.90;;;;;;4934772;29;20564;-80
2021/07/30 13:00:53;;;;;;;5.13;4.73;;;28.70;99.90;;;;;;4934360;29;20420;-79
2021/07/30 13:03:19;;;;;;;7.77;4.60;;;28.90;99.90;;;;;;4934266;29;20413;-79
2021/07/30 13:05:51;;;;;;;5.23;4.73;;;29.00;99.90;;;;;;4934775;29;20421;-79
2021/07/30 13:08:18;;;;;;;5.37;4.87;;;29.00;99.90;;;;;;4936407;29;20495;-79
2021/07/30 13:10:43;;;;;;;5.80;5.30;;;28.90;99.90;;;;;;4938877;29;20820;-78
2021/07/30 13:13:09;;;;;;;5.37;4.60;;;28.70;99.90;;;;;;4934400;29;20484;-79
2021/07/30 13:15:35;;;;;;;5.10;4.70;;;28.60;99.90;;;;;;4934696;29;20205;-79
2021/07/30 13:18:00;;;;;;;5.43;4.93;;;28.50;99.90;;;;;;4934958;29;20180;-78
2021/07/30 13:20:26;;;;;;;5.70;5.00;;;28.40;99.90;;;;;;4934253;29;20200;-79
2021/07/30 13:22:51;;;;;;;7.77;6.23;;;28.30;99.90;;;;;;4934035;29;20207;-79
2021/07/30 13:25:17;;;;;;;6.83;4.77;;;28.40;99.90;;;;;;4934276;29;20177;-78
2021/07/30 13:27:42;;;;;;;5.90;5.40;;;28.60;99.90;;;;;;4934264;29;20188;-79
2021/07/30 13:30:08;;;;;;;6.13;5.63;;;28.70;99.90;;;;;;4932726;29;20181;-79
2021/07/30 13:32:34;;;;;;;6.27;5.20;;;28.70;99.90;;;;;;4934006;29;20284;-79
2021/07/30 13:34:59;;;;;;;5.93;5.43;;;28.80;99.90;;;;;;4934279;29;20236;-79
2021/07/30 13:37:25;;;;;;;16.43;6.00;;;28.90;99.90;;;;;;4933242;29;20529;-79
2021/07/30 13:39:51;;;;;;;8.83;4.90;;;28.80;99.90;;;;;;4934282;29;20181;-79
2021/07/30 13:42:16;;;;;;;7.40;5.80;;;28.70;99.90;;;;;;4934333;29;20391;-78
2021/07/30 13:44:41;;;;;;;5.83;5.33;;;28.60;99.90;;;;;;4934222;29;20609;-79
2021/07/30 13:47:08;;;;;;;9.77;5.10;;;28.50;99.90;;;;;;4934210;29;20223;-78
2021/07/30 13:49:33;;;;;;;4.93;4.53;;;28.60;99.90;;;;;;4933143;29;20824;-79
2021/07/30 13:51:59;;;;;;;5.27;4.70;;;28.60;99.90;;;;;;4933926;29;20586;-79
2021/07/30 13:54:24;;;;;;;5.73;5.10;;;28.70;99.90;;;;;;4934408;29;20190;-78
2021/07/30 13:56:50;;;;;;;10.03;5.60;;;28.70;99.90;;;;;;4933796;29;20265;-78
2021/07/30 13:59:15;;;;;;;4.80;4.40;;;28.80;99.90;;;;;;4934302;29;20177;-80
2021/07/30 14:01:41;;;;;;;8.87;5.87;;;28.70;99.90;;;;;;4933815;29;20201;-79
2021/07/30 14:04:06;;;;;;;6.00;5.50;;;28.70;99.90;;;;;;4934125;29;20677;-79
2021/07/30 14:06:32;;;;;;;5.70;5.20;;;28.70;99.90;;;;;;4933887;29;20260;-80
2021/07/30 14:08:57;;;;;;;6.50;5.20;;;28.60;99.90;;;;;;4933858;29;20182;-78
2021/07/30 14:11:23;;;;;;;6.53;5.20;;;28.60;99.90;;;;;;4933574;29;20695;-79
2021/07/30 14:13:48;;;;;;;6.40;5.73;;;28.60;99.90;;;;;;4935991;29;20178;-79
2021/07/30 14:16:15;;;;;;;6.00;5.40;;;28.60;99.90;;;;;;4937633;29;20209;-76
2021/07/30 14:18:41;;;;;;;7.33;5.60;;;28.50;99.90;;;;;;4937002;29;20184;-79
2021/07/30 14:21:07;;;;;;;6.60;6.10;;;28.50;99.90;;;;;;4937272;29;20429;-78
2021/07/30 14:23:32;;;;;;;6.77;5.37;;;28.60;99.90;;;;;;4936356;29;20181;-78
2021/07/30 14:25:58;;;;;;;6.80;6.20;;;28.40;99.90;;;;;;4937860;29;20181;-79
2021/07/30 14:28:23;;;;;;;5.57;5.10;;;28.40;99.90;;;;;;4937562;29;20181;-79
2021/07/30 14:30:49;;;;;;;5.67;5.00;;;28.50;99.90;;;;;;4937190;29;20188;-79
2021/07/30 14:33:14;;;;;;;6.33;5.50;;;28.50;99.90;;;;;;4937575;29;20192;-76
2021/07/30 14:35:41;;;;;;;6.53;5.63;;;28.50;99.90;;;;;;4937177;29;20710;-79
2021/07/30 14:38:07;;;;;;;7.20;6.50;;;28.70;99.90;;;;;;4937831;29;20204;-79
2021/07/30 14:40:36;;;;;;;5.97;4.93;;;28.60;99.90;;;;;;4937679;29;20421;-78
2021/07/30 14:43:04;;;;;;;6.00;5.40;;;28.50;99.90;;;;;;4936316;29;20682;-76
2021/07/30 14:45:29;;;;;;;7.20;5.03;;;28.60;99.90;;;;;;4937494;29;20414;-79
2021/07/30 14:47:55;;;;;;;5.80;5.30;;;28.60;99.90;;;;;;4939414;29;20508;-80
2021/07/30 14:50:22;;;;;;;7.10;5.47;;;28.40;99.90;;;;;;4939193;29;20178;-79
2021/07/30 14:52:47;;;;;;;5.23;4.83;;;28.30;99.90;;;;;;4938837;29;20198;-80
2021/07/30 14:55:13;;;;;;;5.73;5.13;;;28.20;99.90;;;;;;4939062;29;20633;-80
2021/07/30 14:57:39;;;;;;;6.27;5.73;;;28.20;99.90;;;;;;4939267;29;20233;-80
2021/07/30 15:00:05;;;;;;;9.40;5.80;;;28.10;99.90;;;;;;4939466;29;20419;-80
2021/07/30 15:02:30;;;;;;;6.17;5.47;;;28.00;99.90;;;;;;4939572;29;20213;-79
2021/07/30 15:04:56;;;;;;;6.63;5.93;;;28.00;99.90;;;;;;4939206;29;20429;-80
2021/07/30 15:07:21;;;;;;;8.93;7.40;;;28.00;99.90;;;;;;4939418;29;20178;-80
2021/07/30 15:09:47;;;;;;;6.63;5.30;;;28.00;99.90;;;;;;4939681;29;20232;-79
2021/07/30 15:12:12;;;;;;;10.40;5.97;;;28.10;99.90;;;;;;4939017;29;20200;-79
2021/07/30 15:14:39;;;;;;;6.67;6.07;;;28.10;99.90;;;;;;4939063;29;20209;-80
2021/07/30 15:17:05;;;;;;;6.90;5.70;;;28.10;99.90;;;;;;4939119;29;20181;-80
2021/07/30 15:19:31;;;;;;;5.17;4.77;;;28.00;99.90;;;;;;4939085;29;20837;-78
2021/07/30 15:21:57;;;;;;;7.80;5.80;;;27.90;99.90;;;;;;4938416;29;20504;-80
2021/07/30 15:24:22;;;;;;;7.50;6.80;;;27.70;99.90;;;;;;4937666;29;20565;-79
2021/07/30 15:26:48;;;;;;;6.07;5.57;;;27.60;99.90;;;;;;4936633;29;20205;-80
2021/07/30 15:29:13;;;;;;;5.90;5.40;;;27.50;99.90;;;;;;4938616;29;20170;-79
2021/07/30 15:31:41;;;;;;;6.17;5.60;;;27.50;99.90;;;;;;4938006;29;20216;-80
2021/07/30 15:34:06;;;;;;;6.13;5.63;;;27.50;99.90;;;;;;4938017;29;20166;-78
2021/07/30 15:36:36;;;;;;;6.77;6.13;;;27.50;99.90;;;;;;4937626;29;20469;-81
2021/07/30 15:39:04;;;;;;;6.97;6.27;;;27.60;99.90;;;;;;4938960;29;20193;-80
2021/07/30 15:41:30;;;;;;;6.20;5.60;;;27.60;99.90;;;;;;4937698;29;20467;-79
2021/07/30 15:43:56;;;;;;;7.00;6.40;;;27.50;99.90;;;;;;4938016;29;20445;-79
2021/07/30 15:46:22;;;;;;;5.57;5.07;;;27.50;99.90;;;;;;4938142;29;20181;-80
2021/07/30 15:48:49;;;;;;;6.37;5.80;;;27.50;99.90;;;;;;4936507;29;20822;-79
2021/07/30 15:51:16;;;;;;;6.63;6.07;;;27.50;99.90;;;;;;4937530;29;20440;-79
2021/07/30 15:53:43;;;;;;;6.30;5.77;;;27.50;99.90;;;;;;4937900;29;20512;-80
2021/07/30 15:56:08;;;;;;;6.43;5.87;;;27.50;99.90;;;;;;4938651;29;20974;-78
2021/07/30 15:58:39;;;;;;;7.03;6.30;;;27.40;99.90;;;;;;4938416;29;20449;-80
2021/07/30 16:01:05;;;;;;;7.30;6.60;;;27.50;99.90;;;;;;4937255;29;20272;-80
2021/07/30 16:03:31;;;;;;;7.17;6.57;;;27.40;99.90;;;;;;4938142;29;20405;-78
2021/07/30 16:05:56;;;;;;;7.37;6.67;;;27.40;99.90;;;;;;4937936;29;20184;-80
2021/07/30 16:08:22;;;;;;;10.73;6.27;;;27.30;99.90;;;;;;4936319;29;20185;-80
2021/07/30 16:10:49;;;;;;;10.03;6.10;;;27.20;99.90;;;;;;4937037;29;20610;-79
2021/07/30 16:13:16;;;;;;;7.93;6.70;;;27.10;99.90;;;;;;4937931;29;20194;-80
2021/07/30 16:15:42;;;;;;;7.10;6.43;;;27.00;99.90;;;;;;4936487;29;20583;-80
2021/07/30 16:18:07;;;;;;;6.50;5.70;;;26.90;99.90;;;;;;4937738;29;20453;-79
2021/07/30 16:20:33;;;;;;;7.30;5.57;;;26.90;99.90;;;;;;4937017;29;20692;-81
2021/07/30 16:22:58;;;;;;;6.63;6.00;;;26.80;99.90;;;;;;4937237;29;20244;-79
2021/07/30 16:25:24;;;;;;;6.60;5.90;;;26.70;99.90;;;;;;4938561;29;20189;-80
2021/07/30 16:27:50;;;;;;;8.43;7.60;;;26.50;99.90;;;;;;4936586;29;20661;-80
2021/07/30 16:30:16;;;;;;;8.33;6.37;;;26.40;99.90;;;;;;4937436;29;20241;-80
2021/07/30 16:32:41;;;;;;;7.77;7.07;;;26.30;99.90;;;;;;4937134;29;20460;-80
2021/07/30 16:35:08;;;;;;;6.23;5.57;;;26.20;99.90;;;;;;4938346;29;20503;-80
2021/07/30 16:37:34;;;;;;;9.57;6.30;;;26.10;99.90;;;;;;4936828;29;20540;-79
2021/07/30 16:40:00;;;;;;;6.43;5.90;;;26.00;99.90;;;;;;4937624;29;21044;-80
2021/07/30 16:42:25;;;;;;;6.80;5.53;;;25.90;99.90;;;;;;4936618;29;20436;-79
2021/07/30 16:44:51;;;;;;;7.90;6.77;;;25.80;99.90;;;;;;4936312;29;20177;-79
2021/07/30 16:47:16;;;;;;;8.63;6.63;;;25.70;99.90;;;;;;4935949;29;20209;-80
2021/07/30 16:49:42;;;;;;;8.00;5.50;;;25.70;99.90;;;;;;4936897;29;20177;-79
2021/07/30 16:52:08;;;;;;;7.10;6.47;;;25.60;99.90;;;;;;4939586;29;20287;-80
2021/07/30 16:54:34;;;;;;;6.80;6.10;;;25.60;99.90;;;;;;4945610;29;20228;-80
2021/07/30 16:57:00;;;;;;;7.83;6.10;;;25.50;99.90;;;;;;4935561;29;20655;-80
2021/07/30 16:59:26;;;;;;;8.63;7.40;;;25.40;99.90;;;;;;4936317;29;20421;-80
2021/07/30 17:01:51;;;;;;;8.00;7.30;;;25.40;99.90;;;;;;4935489;29;20197;-81
2021/07/30 17:04:17;;;;;;;12.33;8.80;;;25.40;99.90;;;;;;4937009;29;20182;-80
2021/07/30 17:06:43;;;;;;;15.30;7.70;;;25.30;99.90;;;;;;4936135;29;20659;-80
2021/07/30 17:09:08;;;;;;;9.20;7.80;;;25.30;99.90;;;;;;4935848;29;20184;-79
2021/07/30 17:11:34;;;;;;;9.03;8.10;;;24.90;99.90;;;;;;4934771;29;20197;-80
2021/07/30 17:13:59;;;;;;;9.07;8.17;;;24.60;99.90;;;;;;4936118;29;20178;-80
2021/07/30 17:16:27;;;;;;;12.97;8.00;;;24.30;99.90;;;;;;4936146;29;20215;-80
2021/07/30 17:18:52;;;;;;;10.97;8.43;;;24.00;99.90;;;;;;4935695;29;20205;-81